Time,TemperatureF,DewpointF,PressureIn,WindDirection,WindDirectionDegrees,WindSpeedMPH,WindSpeedGustMPH,Humidity,HourlyPrecipIn,Conditions,Clouds,dailyrainin,SoftwareType,DateUTC
2013-01-23 00:05:00,54.7,22.3,29.74,NW,325,0.0,0.0,28,0.00,,,0.00,VWS V13.01,2013-01-23 08:05:00,
2013-01-23 00:10:00,55.1,19.9,29.73,NW,325,0.0,1.0,25,0.00,,,0.00,VWS V13.01,2013-01-23 08:10:00,
2013-01-23 00:15:00,55.8,20.5,29.73,NW,325,0.0,1.0,25,0.00,,,0.00,VWS V13.01,2013-01-23 08:15:00,
2013-01-23 00:20:00,55.7,22.3,29.73,NW,325,0.0,2.0,27,0.00,,,0.00,VWS V13.01,2013-01-23 08:20:00,
2013-01-23 00:25:00,55.5,21.2,29.73,NW,325,0.0,2.0,26,0.00,,,0.00,VWS V13.01,2013-01-23 08:25:00,
2013-01-23 00:30:00,55.8,20.5,29.74,NW,325,0.0,2.0,25,0.00,,,0.00,VWS V13.01,2013-01-23 08:30:00,
2013-01-23 00:35:00,56.1,21.7,29.74,NW,325,0.0,2.0,26,0.00,,,0.00,VWS V13.01,2013-01-23 08:35:00,
2013-01-23 00:40:00,56.0,22.5,29.73,NW,325,0.0,2.0,27,0.00,,,0.00,VWS V13.01,2013-01-23 08:40:00,
2013-01-23 00:45:00,55.8,22.3,29.73,NW,325,0.0,2.0,27,0.00,,,0.00,VWS V13.01,2013-01-23 08:45:00,
2013-01-23 00:50:00,55.8,22.3,29.73,NW,325,0.0,2.0,27,0.00,,,0.00,VWS V13.01,2013-01-23 08:50:00,
2013-01-23 00:55:00,56.0,22.5,29.73,NW,325,1.0,2.0,27,0.00,,,0.00,VWS V13.01,2013-01-23 08:55:00,
2013-01-23 01:00:00,56.0,23.4,29.73,NW,325,0.0,2.0,28,0.00,,,0.00,VWS V13.01,2013-01-23 09:00:00,
2013-01-23 01:05:00,55.8,24.9,29.73,NW,325,0.0,0.0,30,0.00,,,0.00,VWS V13.01,2013-01-23 09:05:00,
2013-01-23 01:10:00,55.7,22.3,29.73,NW,325,0.0,0.0,27,0.00,,,0.00,VWS V13.01,2013-01-23 09:10:00,
2013-01-23 01:15:00,56.0,20.7,29.73,NW,325,0.0,0.0,25,0.00,,,0.00,VWS V13.01,2013-01-23 09:15:00,
2013-01-23 01:20:00,56.3,21.9,29.73,NW,325,0.0,0.0,26,0.00,,,0.00,VWS V13.01,2013-01-23 09:20:00,
2013-01-23 01:25:00,56.3,22.8,29.74,NW,325,2.0,2.0,27,0.00,,,0.00,VWS V13.01,2013-01-23 09:25:00,
2013-01-23 01:30:00,56.5,21.1,29.74,NW,325,0.0,2.0,25,0.00,,,0.00,VWS V13.01,2013-01-23 09:30:00,
2013-01-23 01:35:00,56.7,22.2,29.74,NW,325,0.0,2.0,26,0.00,,,0.00,VWS V13.01,2013-01-23 09:35:00,
2013-01-23 01:40:00,56.8,21.4,29.73,NW,325,0.0,2.0,25,0.00,,,0.00,VWS V13.01,2013-01-23 09:40:00,
2013-01-23 01:45:00,56.9,23.3,29.73,NW,325,1.0,2.0,27,0.00,,,0.00,VWS V13.01,2013-01-23 09:45:00,
2013-01-23 01:50:00,56.6,23.9,29.73,NW,325,0.0,2.0,28,0.00,,,0.00,VWS V13.01,2013-01-23 09:50:00,
2013-01-23 01:55:00,56.6,20.2,29.73,NW,325,0.0,2.0,24,0.00,,,0.00,VWS V13.01,2013-01-23 09:55:00,
2013-01-23 02:00:00,57.2,21.7,29.73,NW,325,1.0,2.0,25,0.00,,,0.00,VWS V13.01,2013-01-23 10:00:00,
2013-01-23 02:05:00,57.3,22.7,29.73,NW,325,0.0,2.0,26,0.00,,,0.00,VWS V13.01,2013-01-23 10:05:00,
2013-01-23 02:10:00,57.3,21.8,29.73,NW,325,0.0,2.0,25,0.00,,,0.00,VWS V13.01,2013-01-23 10:10:00,
2013-01-23 02:15:00,57.1,24.3,29.73,NW,325,0.0,2.0,28,0.00,,,0.00,VWS V13.01,2013-01-23 10:15:00,
2013-01-23 02:20:00,57.0,22.5,29.73,NW,325,0.0,2.0,26,0.00,,,0.00,VWS V13.01,2013-01-23 10:20:00,
2013-01-23 02:25:00,57.1,22.6,29.73,NW,325,0.0,2.0,26,0.00,,,0.00,VWS V13.01,2013-01-23 10:25:00,
2013-01-23 02:30:00,57.1,21.6,29.73,NW,311,0.0,2.0,25,0.00,,,0.00,VWS V13.01,2013-01-23 10:30:00,
2013-01-23 02:35:00,57.2,23.5,29.72,NW,311,0.0,2.0,27,0.00,,,0.00,VWS V13.01,2013-01-23 10:35:00,
2013-01-23 02:40:00,57.1,24.3,29.73,NW,311,1.0,4.0,28,0.00,,,0.00,VWS V13.01,2013-01-23 10:40:00,
2013-01-23 02:45:00,56.7,22.2,29.73,NW,311,0.0,4.0,26,0.00,,,0.00,VWS V13.01,2013-01-23 10:45:00,
2013-01-23 02:50:00,56.6,23.0,29.72,NW,311,0.0,4.0,27,0.00,,,0.00,VWS V13.01,2013-01-23 10:50:00,
2013-01-23 02:55:00,56.7,23.1,29.72,NW,311,0.0,4.0,27,0.00,,,0.00,VWS V13.01,2013-01-23 10:55:00,
2013-01-23 03:00:00,56.8,22.3,29.72,NW,311,0.0,4.0,26,0.00,,,0.00,VWS V13.01,2013-01-23 11:00:00,
2013-01-23 03:05:00,56.9,25.0,29.72,NW,311,0.0,1.0,29,0.00,,,0.00,VWS V13.01,2013-01-23 11:05:00,
2013-01-23 03:10:00,56.6,23.0,29.72,NW,311,0.0,2.0,27,0.00,,,0.00,VWS V13.01,2013-01-23 11:10:00,
2013-01-23 03:15:00,56.8,20.4,29.71,NW,311,4.0,5.0,24,0.00,,,0.00,VWS V13.01,2013-01-23 11:15:00,
2013-01-23 03:20:00,58.5,25.5,29.71,NW,312,1.0,6.0,28,0.00,,,0.00,VWS V13.01,2013-01-23 11:20:00,
2013-01-23 03:25:00,57.9,24.1,29.71,NW,312,0.0,6.0,27,0.00,,,0.00,VWS V13.01,2013-01-23 11:25:00,
2013-01-23 03:30:00,57.4,22.8,29.72,NW,311,0.0,6.0,26,0.00,,,0.00,VWS V13.01,2013-01-23 11:30:00,
2013-01-23 03:35:00,57.6,23.0,29.72,NW,311,0.0,6.0,26,0.00,,,0.00,VWS V13.01,2013-01-23 11:35:00,
2013-01-23 03:40:00,57.7,24.0,29.72,NW,312,0.0,6.0,27,0.00,,,0.00,VWS V13.01,2013-01-23 11:40:00,
2013-01-23 03:45:00,57.5,22.9,29.73,NW,312,3.0,6.0,26,0.00,,,0.00,VWS V13.01,2013-01-23 11:45:00,
2013-01-23 03:50:00,59.0,21.3,29.73,NW,314,1.0,7.0,23,0.00,,,0.00,VWS V13.01,2013-01-23 11:50:00,
2013-01-23 03:56:00,60.2,23.3,29.72,NW,314,0.0,7.0,24,0.00,,,0.00,VWS V13.01,2013-01-23 11:56:00,
2013-01-23 04:01:00,60.4,23.5,29.72,NW,314,0.0,7.0,24,0.00,,,0.00,VWS V13.01,2013-01-23 12:01:00,
2013-01-23 04:06:00,59.9,24.0,29.72,NW,314,2.0,3.0,25,0.00,,,0.00,VWS V13.01,2013-01-23 12:06:00,
2013-01-23 04:11:00,59.1,24.3,29.71,NW,314,0.0,3.0,26,0.00,,,0.00,VWS V13.01,2013-01-23 12:11:00,
2013-01-23 04:16:00,59.0,24.2,29.71,NW,314,0.0,3.0,26,0.00,,,0.00,VWS V13.01,2013-01-23 12:16:00,
2013-01-23 04:21:00,58.7,24.8,29.71,NW,314,2.0,3.0,27,0.00,,,0.00,VWS V13.01,2013-01-23 12:21:00,
2013-01-23 04:26:00,58.0,26.0,29.71,NW,314,0.0,3.0,29,0.00,,,0.00,VWS V13.01,2013-01-23 12:26:00,
2013-01-23 04:31:00,57.4,24.6,29.71,NW,314,1.0,4.0,28,0.00,,,0.00,VWS V13.01,2013-01-23 12:31:00,
2013-01-23 04:36:00,57.4,22.8,29.70,NW,314,0.0,4.0,26,0.00,,,0.00,VWS V13.01,2013-01-23 12:36:00,
2013-01-23 04:41:00,57.6,22.1,29.70,NW,314,0.0,4.0,25,0.00,,,0.00,VWS V13.01,2013-01-23 12:41:00,
2013-01-23 04:46:00,57.6,24.8,29.71,NW,314,1.0,4.0,28,0.00,,,0.00,VWS V13.01,2013-01-23 12:46:00,
2013-01-23 04:51:00,57.7,22.1,29.71,NW,314,0.0,4.0,25,0.00,,,0.00,VWS V13.01,2013-01-23 12:51:00,
2013-01-23 04:56:00,58.1,22.5,29.72,NW,314,0.0,4.0,25,0.00,,,0.00,VWS V13.01,2013-01-23 12:56:00,
2013-01-23 05:02:00,58.7,23.0,29.71,NW,314,0.0,4.0,25,0.00,,,0.00,VWS V13.01,2013-01-23 13:02:00,
2013-01-23 05:07:00,58.7,24.8,29.71,NW,314,0.0,2.0,27,0.00,,,0.00,VWS V13.01,2013-01-23 13:07:00,
2013-01-23 05:12:00,58.3,25.4,29.71,NW,314,0.0,2.0,28,0.00,,,0.00,VWS V13.01,2013-01-23 13:12:00,
2013-01-23 05:17:00,57.7,24.8,29.71,NW,314,2.0,2.0,28,0.00,,,0.00,VWS V13.01,2013-01-23 13:17:00,
2013-01-23 05:22:00,57.5,23.8,29.71,NW,314,0.0,4.0,27,0.00,,,0.00,VWS V13.01,2013-01-23 13:22:00,
2013-01-23 05:27:00,57.5,23.8,29.71,NW,314,0.0,4.0,27,0.00,,,0.00,VWS V13.01,2013-01-23 13:27:00,
2013-01-23 05:32:00,57.5,22.9,29.71,NW,314,0.0,4.0,26,0.00,,,0.00,VWS V13.01,2013-01-23 13:32:00,
2013-01-23 05:37:00,57.5,22.9,29.71,NW,314,0.0,4.0,26,0.00,,,0.00,VWS V13.01,2013-01-23 13:37:00,
2013-01-23 05:42:00,57.6,25.6,29.71,NW,314,1.0,4.0,29,0.00,,,0.00,VWS V13.01,2013-01-23 13:42:00,
2013-01-23 05:47:00,57.0,24.2,29.71,NW,314,1.0,4.0,28,0.00,,,0.00,VWS V13.01,2013-01-23 13:47:00,
2013-01-23 05:52:00,57.0,23.4,29.72,NW,314,2.0,5.0,27,0.00,,,0.00,VWS V13.01,2013-01-23 13:52:00,
2013-01-23 05:57:00,57.8,23.2,29.72,NW,314,1.0,5.0,26,0.00,,,0.00,VWS V13.01,2013-01-23 13:57:00,
2013-01-23 06:02:00,58.6,23.8,29.71,NW,314,0.0,5.0,26,0.00,,,0.00,VWS V13.01,2013-01-23 14:02:00,
2013-01-23 06:07:00,58.0,26.0,29.71,NW,314,0.0,1.0,29,0.00,,,0.00,VWS V13.01,2013-01-23 14:07:00,
2013-01-23 06:12:00,57.3,25.3,29.72,NW,314,0.0,2.0,29,0.00,,,0.00,VWS V13.01,2013-01-23 14:12:00,
2013-01-23 06:17:00,56.9,25.0,29.72,NW,314,0.0,3.0,29,0.00,,,0.00,VWS V13.01,2013-01-23 14:17:00,
2013-01-23 06:22:00,56.9,25.0,29.72,NW,314,2.0,3.0,29,0.00,,,0.00,VWS V13.01,2013-01-23 14:22:00,
2013-01-23 06:27:00,57.1,24.3,29.72,NW,314,0.0,3.0,28,0.00,,,0.00,VWS V13.01,2013-01-23 14:27:00,
2013-01-23 06:32:00,57.2,25.2,29.72,NW,314,0.0,3.0,29,0.00,,,0.00,VWS V13.01,2013-01-23 14:32:00,
2013-01-23 06:37:00,57.0,25.1,29.72,NW,314,1.0,3.0,29,0.00,,,0.00,VWS V13.01,2013-01-23 14:37:00,
2013-01-23 06:42:00,57.1,23.5,29.71,NW,314,0.0,3.0,27,0.00,,,0.00,VWS V13.01,2013-01-23 14:42:00,
2013-01-23 06:47:00,57.0,24.2,29.71,NW,314,0.0,3.0,28,0.00,,,0.00,VWS V13.01,2013-01-23 14:47:00,
2013-01-23 06:52:00,56.8,24.9,29.72,NW,314,0.0,3.0,29,0.00,,,0.00,VWS V13.01,2013-01-23 14:52:00,
2013-01-23 06:57:00,56.1,25.9,29.72,NW,314,4.0,4.0,31,0.00,,,0.00,VWS V13.01,2013-01-23 14:57:00,
2013-01-23 07:02:00,57.0,22.5,29.71,North,360,0.0,6.0,26,0.00,,,0.00,VWS V13.01,2013-01-23 15:02:00,
2013-01-23 07:07:00,57.7,25.7,29.71,North,360,0.0,1.0,29,0.00,,,0.00,VWS V13.01,2013-01-23 15:07:00,
2013-01-23 07:12:00,57.3,23.6,29.71,North,360,0.0,4.0,27,0.00,,,0.00,VWS V13.01,2013-01-23 15:12:00,
2013-01-23 07:17:00,57.3,24.5,29.72,North,360,0.0,4.0,28,0.00,,,0.00,VWS V13.01,2013-01-23 15:17:00,
2013-01-23 07:22:00,57.5,23.8,29.72,North,360,0.0,4.0,27,0.00,,,0.00,VWS V13.01,2013-01-23 15:22:00,
2013-01-23 07:27:00,58.0,24.2,29.72,North,360,0.0,4.0,27,0.00,,,0.00,VWS V13.01,2013-01-23 15:27:00,
2013-01-23 07:32:00,58.4,27.1,29.71,North,360,0.0,4.0,30,0.00,,,0.00,VWS V13.01,2013-01-23 15:32:00,
2013-01-23 07:37:00,58.0,26.0,29.71,North,360,0.0,4.0,29,0.00,,,0.00,VWS V13.01,2013-01-23 15:37:00,
2013-01-23 07:42:00,57.7,24.8,29.72,North,360,0.0,4.0,28,0.00,,,0.00,VWS V13.01,2013-01-23 15:42:00,
2013-01-23 07:47:00,57.8,26.6,29.72,North,360,0.0,4.0,30,0.00,,,0.00,VWS V13.01,2013-01-23 15:47:00,
2013-01-23 07:52:00,58.0,25.1,29.72,North,360,0.0,4.0,28,0.00,,,0.00,VWS V13.01,2013-01-23 15:52:00,
2013-01-23 07:57:00,58.1,27.6,29.72,North,360,0.0,4.0,31,0.00,,,0.00,VWS V13.01,2013-01-23 15:57:00,
2013-01-23 08:02:00,58.1,26.0,29.72,North,360,0.0,4.0,29,0.00,,,0.00,VWS V13.01,2013-01-23 16:02:00,
2013-01-23 08:07:00,59.0,24.2,29.72,North,355,1.0,4.0,26,0.00,,,0.00,VWS V13.01,2013-01-23 16:07:00,
2013-01-23 08:12:00,59.9,30.0,29.72,North,355,0.0,4.0,32,0.00,,,0.00,VWS V13.01,2013-01-23 16:12:00,
2013-01-23 08:17:00,60.4,25.4,29.72,North,355,2.0,5.0,26,0.00,,,0.00,VWS V13.01,2013-01-23 16:17:00,
2013-01-23 08:22:00,61.3,25.2,29.72,North,355,0.0,5.0,25,0.00,,,0.00,VWS V13.01,2013-01-23 16:22:00,
2013-01-23 08:27:00,61.4,32.1,29.72,North,355,0.0,5.0,33,0.00,,,0.00,VWS V13.01,2013-01-23 16:27:00,
2013-01-23 08:32:00,61.2,29.5,29.72,North,355,0.0,5.0,30,0.00,,,0.00,VWS V13.01,2013-01-23 16:32:00,
2013-01-23 08:37:00,61.2,26.1,29.72,North,355,2.0,5.0,26,0.00,,,0.00,VWS V13.01,2013-01-23 16:37:00,
2013-01-23 08:42:00,61.6,28.2,29.72,North,355,0.0,5.0,28,0.00,,,0.00,VWS V13.01,2013-01-23 16:42:00,
2013-01-23 08:47:00,62.0,26.8,29.72,North,355,0.0,5.0,26,0.00,,,0.00,VWS V13.01,2013-01-23 16:47:00,
2013-01-23 08:52:00,62.4,32.9,29.72,North,355,0.0,5.0,33,0.00,,,0.00,VWS V13.01,2013-01-23 16:52:00,
2013-01-23 08:57:00,62.4,30.6,29.73,North,355,0.0,5.0,30,0.00,,,0.00,VWS V13.01,2013-01-23 16:57:00,
2013-01-23 09:02:00,62.6,29.1,29.72,North,355,0.0,5.0,28,0.00,,,0.00,VWS V13.01,2013-01-23 17:02:00,
2013-01-23 09:07:00,62.9,35.6,29.73,North,355,1.0,4.0,36,0.00,,,0.00,VWS V13.01,2013-01-23 17:07:00,
2013-01-23 09:12:00,62.4,32.9,29.73,North,355,0.0,4.0,33,0.00,,,0.00,VWS V13.01,2013-01-23 17:12:00,
2013-01-23 09:17:00,62.1,30.3,29.72,North,355,0.0,4.0,30,0.00,,,0.00,VWS V13.01,2013-01-23 17:17:00,
2013-01-23 09:22:00,62.3,30.5,29.72,North,355,0.0,4.0,30,0.00,,,0.00,VWS V13.01,2013-01-23 17:22:00,
2013-01-23 09:27:00,62.5,34.5,29.73,North,355,0.0,4.0,35,0.00,,,0.00,VWS V13.01,2013-01-23 17:27:00,
2013-01-23 09:32:00,62.7,32.4,29.73,North,355,0.0,4.0,32,0.00,,,0.00,VWS V13.01,2013-01-23 17:32:00,
2013-01-23 09:37:00,62.9,32.6,29.73,North,355,1.0,4.0,32,0.00,,,0.00,VWS V13.01,2013-01-23 17:37:00,
2013-01-23 09:42:00,63.1,30.4,29.74,North,355,0.0,4.0,29,0.00,,,0.00,VWS V13.01,2013-01-23 17:42:00,
2013-01-23 09:47:00,63.5,29.0,29.74,North,355,0.0,4.0,27,0.00,,,0.00,VWS V13.01,2013-01-23 17:47:00,
2013-01-23 09:52:00,64.0,29.4,29.74,North,355,0.0,4.0,27,0.00,,,0.00,VWS V13.01,2013-01-23 17:52:00,
2013-01-23 09:57:00,64.5,28.9,29.73,North,355,0.0,4.0,26,0.00,,,0.00,VWS V13.01,2013-01-23 17:57:00,
2013-01-23 10:02:00,65.0,31.1,29.73,North,355,0.0,4.0,28,0.00,,,0.00,VWS V13.01,2013-01-23 18:02:00,
2013-01-23 10:07:00,65.4,33.2,29.73,North,355,0.0,0.0,30,0.00,,,0.00,VWS V13.01,2013-01-23 18:07:00,
2013-01-23 10:12:00,65.6,35.0,29.73,North,355,0.0,0.0,32,0.00,,,0.00,VWS V13.01,2013-01-23 18:12:00,
2013-01-23 10:17:00,65.6,31.6,29.74,North,355,0.0,1.0,28,0.00,,,0.00,VWS V13.01,2013-01-23 18:17:00,
2013-01-23 10:22:00,65.7,30.8,29.74,North,355,1.0,2.0,27,0.00,,,0.00,VWS V13.01,2013-01-23 18:22:00,
2013-01-23 10:27:00,65.9,31.0,29.74,North,355,0.0,5.0,27,0.00,,,0.00,VWS V13.01,2013-01-23 18:27:00,
2013-01-23 10:33:00,66.0,32.0,29.74,North,355,2.0,5.0,28,0.00,,,0.00,VWS V13.01,2013-01-23 18:33:00,
2013-01-23 10:38:00,66.2,32.2,29.73,NNW,344,1.0,5.0,28,0.00,,,0.00,VWS V13.01,2013-01-23 18:38:00,
2013-01-23 10:43:00,66.4,31.4,29.73,NNW,344,1.0,5.0,27,0.00,,,0.00,VWS V13.01,2013-01-23 18:43:00,
2013-01-23 10:48:00,66.7,35.9,29.73,NNW,344,0.0,5.0,32,0.00,,,0.00,VWS V13.01,2013-01-23 18:48:00,
2013-01-23 10:53:00,66.8,38.3,29.73,NNW,344,0.0,5.0,35,0.00,,,0.00,VWS V13.01,2013-01-23 18:53:00,
2013-01-23 10:58:00,66.8,33.5,29.73,NNW,344,0.0,5.0,29,0.00,,,0.00,VWS V13.01,2013-01-23 18:58:00,
2013-01-23 11:03:00,66.9,33.6,29.73,NNW,344,0.0,5.0,29,0.00,,,0.00,VWS V13.01,2013-01-23 19:03:00,
2013-01-23 11:08:00,67.4,34.9,29.73,NNW,344,2.0,3.0,30,0.00,,,0.00,VWS V13.01,2013-01-23 19:08:00,
2013-01-23 11:13:00,68.0,35.4,29.73,NNW,344,0.0,3.0,30,0.00,,,0.00,VWS V13.01,2013-01-23 19:13:00,
2013-01-23 11:18:00,68.8,36.1,29.73,NNW,342,0.0,4.0,30,0.00,,,0.00,VWS V13.01,2013-01-23 19:18:00,
2013-01-23 11:23:00,69.3,35.7,29.72,SE,136,1.0,6.0,29,0.00,,,0.00,VWS V13.01,2013-01-23 19:23:00,
2013-01-23 11:28:00,69.7,36.9,29.72,SE,136,1.0,6.0,30,0.00,,,0.00,VWS V13.01,2013-01-23 19:28:00,
2013-01-23 11:33:00,70.1,37.3,29.72,SSE,155,5.0,9.0,30,0.00,,,0.00,VWS V13.01,2013-01-23 19:33:00,
2013-01-23 11:38:00,70.5,37.6,29.72,SSE,160,4.0,9.0,30,0.00,,,0.00,VWS V13.01,2013-01-23 19:38:00,
2013-01-23 11:43:00,71.2,37.3,29.72,SSE,160,5.0,9.0,29,0.00,,,0.00,VWS V13.01,2013-01-23 19:43:00,
2013-01-23 11:48:00,72.4,37.5,29.71,SSE,168,6.0,9.0,28,0.00,,,0.00,VWS V13.01,2013-01-23 19:48:00,
2013-01-23 11:53:00,73.3,38.3,29.71,ESE,119,5.0,9.0,28,0.00,,,0.00,VWS V13.01,2013-01-23 19:53:00,
2013-01-23 11:58:00,74.4,38.3,29.71,SE,136,4.0,9.0,27,0.00,,,0.00,VWS V13.01,2013-01-23 19:58:00,
2013-01-23 12:03:00,75.3,38.1,29.71,SE,141,4.0,4.0,26,0.00,,,0.00,VWS V13.01,2013-01-23 20:03:00,
2013-01-23 12:08:00,76.1,36.7,29.71,East,86,10.0,10.0,24,0.00,,,0.00,VWS V13.01,2013-01-23 20:08:00,
2013-01-23 12:13:00,76.0,36.6,29.71,SSE,156,8.0,14.0,24,0.00,,,0.00,VWS V13.01,2013-01-23 20:13:00,
2013-01-23 12:18:00,76.1,36.7,29.71,East,92,6.0,14.0,24,0.00,,,0.00,VWS V13.01,2013-01-23 20:18:00,
2013-01-23 12:23:00,76.5,37.1,29.71,East,99,8.0,14.0,24,0.00,,,0.00,VWS V13.01,2013-01-23 20:23:00,
2013-01-23 12:28:00,76.6,37.1,29.71,East,82,8.0,14.0,24,0.00,,,0.00,VWS V13.01,2013-01-23 20:28:00,
2013-01-23 12:33:00,76.5,36.0,29.71,East,92,8.0,14.0,23,0.00,,,0.00,VWS V13.01,2013-01-23 20:33:00,
2013-01-23 12:38:00,76.2,35.7,29.70,ESE,122,7.0,14.0,23,0.00,,,0.00,VWS V13.01,2013-01-23 20:38:00,
2013-01-23 12:43:00,76.1,36.7,29.70,SE,130,6.0,14.0,24,0.00,,,0.00,VWS V13.01,2013-01-23 20:43:00,
2013-01-23 12:48:00,76.0,36.6,29.70,ESE,116,4.0,14.0,24,0.00,,,0.00,VWS V13.01,2013-01-23 20:48:00,
2013-01-23 12:53:00,75.8,36.5,29.70,ESE,107,10.0,14.0,24,0.00,,,0.00,VWS V13.01,2013-01-23 20:53:00,
2013-01-23 12:58:00,75.6,36.3,29.70,ENE,68,7.0,14.0,24,0.00,,,0.00,VWS V13.01,2013-01-23 20:58:00,
2013-01-23 13:03:00,75.4,36.1,29.70,SE,126,7.0,9.0,24,0.00,,,0.00,VWS V13.01,2013-01-23 21:03:00,
2013-01-23 13:08:00,75.2,36.0,29.70,ESE,121,10.0,11.0,24,0.00,,,0.00,VWS V13.01,2013-01-23 21:08:00,
2013-01-23 13:13:00,74.5,38.4,29.71,SSE,161,1.0,11.0,27,0.00,,,0.00,VWS V13.01,2013-01-23 21:13:00,
2013-01-23 13:18:00,73.9,36.9,29.71,SSE,161,2.0,11.0,26,0.00,,,0.00,VWS V13.01,2013-01-23 21:18:00,
2013-01-23 13:23:00,73.9,37.8,29.70,NE,35,2.0,11.0,27,0.00,,,0.00,VWS V13.01,2013-01-23 21:23:00,
2013-01-23 13:28:00,73.9,37.8,29.70,ENE,76,0.0,11.0,27,0.00,,,0.00,VWS V13.01,2013-01-23 21:28:00,
2013-01-23 13:33:00,73.7,38.6,29.70,ENE,77,0.0,11.0,28,0.00,,,0.00,VWS V13.01,2013-01-23 21:33:00,
2013-01-23 13:38:00,73.4,37.4,29.69,NNW,342,3.0,11.0,27,0.00,,,0.00,VWS V13.01,2013-01-23 21:38:00,
2013-01-23 13:43:00,73.3,38.3,29.69,NNW,336,0.0,11.0,28,0.00,,,0.00,VWS V13.01,2013-01-23 21:43:00,
2013-01-23 13:48:00,73.3,36.4,29.68,NNW,336,0.0,11.0,26,0.00,,,0.00,VWS V13.01,2013-01-23 21:48:00,
2013-01-23 13:53:00,73.5,38.4,29.68,NNW,336,0.0,11.0,28,0.00,,,0.00,VWS V13.01,2013-01-23 21:53:00,
2013-01-23 13:58:00,73.5,38.4,29.68,North,351,0.0,11.0,28,0.00,,,0.00,VWS V13.01,2013-01-23 21:58:00,
2013-01-23 14:03:00,73.1,40.7,29.69,ESE,121,8.0,9.0,31,0.00,,,0.00,VWS V13.01,2013-01-23 22:03:00,
2013-01-23 14:08:00,72.3,40.8,29.68,SE,140,6.0,9.0,32,0.00,,,0.00,VWS V13.01,2013-01-23 22:08:00,
2013-01-23 14:13:00,71.7,39.5,29.68,SSE,155,6.0,9.0,31,0.00,,,0.00,VWS V13.01,2013-01-23 22:13:00,
2013-01-23 14:19:00,71.3,39.1,29.69,SSE,156,7.0,9.0,31,0.00,,,0.00,VWS V13.01,2013-01-23 22:19:00,
2013-01-23 14:24:00,71.2,39.0,29.69,SSE,153,0.0,10.0,31,0.00,,,0.00,VWS V13.01,2013-01-23 22:24:00,
2013-01-23 14:29:00,70.9,39.6,29.69,SSE,153,6.0,10.0,32,0.00,,,0.00,VWS V13.01,2013-01-23 22:29:00,
2013-01-23 14:34:00,70.6,39.3,29.70,SE,134,1.0,10.0,32,0.00,,,0.00,VWS V13.01,2013-01-23 22:34:00,
2013-01-23 14:39:00,70.4,37.5,29.70,SE,134,0.0,10.0,30,0.00,,,0.00,VWS V13.01,2013-01-23 22:39:00,
2013-01-23 14:44:00,70.4,37.5,29.70,SE,134,3.0,10.0,30,0.00,,,0.00,VWS V13.01,2013-01-23 22:44:00,
2013-01-23 14:49:00,70.3,38.3,29.70,East,84,4.0,10.0,31,0.00,,,0.00,VWS V13.01,2013-01-23 22:49:00,
2013-01-23 14:54:00,70.3,37.4,29.71,East,84,0.0,10.0,30,0.00,,,0.00,VWS V13.01,2013-01-23 22:54:00,
2013-01-23 14:59:00,70.3,39.9,29.71,East,84,0.0,10.0,33,0.00,,,0.00,VWS V13.01,2013-01-23 22:59:00,
2013-01-23 15:04:00,70.2,39.0,29.71,East,84,2.0,2.0,32,0.00,,,0.00,VWS V13.01,2013-01-23 23:04:00,
2013-01-23 15:09:00,70.1,38.9,29.71,East,84,0.0,2.0,32,0.00,,,0.00,VWS V13.01,2013-01-23 23:09:00,
2013-01-23 15:14:00,70.0,35.4,29.71,East,83,2.0,5.0,28,0.00,,,0.00,VWS V13.01,2013-01-23 23:14:00,
2013-01-23 15:19:00,69.9,36.2,29.71,NW,322,4.0,5.0,29,0.00,,,0.00,VWS V13.01,2013-01-23 23:19:00,
2013-01-23 15:24:00,69.8,36.1,29.71,NW,318,3.0,5.0,29,0.00,,,0.00,VWS V13.01,2013-01-23 23:24:00,
2013-01-23 15:29:00,69.8,34.3,29.71,SW,219,6.0,7.0,27,0.00,,,0.00,VWS V13.01,2013-01-23 23:29:00,
2013-01-23 15:34:00,69.8,34.3,29.72,WSW,245,2.0,11.0,27,0.00,,,0.00,VWS V13.01,2013-01-23 23:34:00,
2013-01-23 15:39:00,69.7,33.3,29.71,South,169,2.0,11.0,26,0.00,,,0.00,VWS V13.01,2013-01-23 23:39:00,
2013-01-23 15:44:00,69.5,34.1,29.70,WNW,292,4.0,11.0,27,0.00,,,0.00,VWS V13.01,2013-01-23 23:44:00,
2013-01-23 15:49:00,69.2,31.9,29.70,WNW,287,3.0,11.0,25,0.00,,,0.00,VWS V13.01,2013-01-23 23:49:00,
2013-01-23 15:54:00,69.0,32.7,29.71,SSE,155,0.0,11.0,26,0.00,,,0.00,VWS V13.01,2013-01-23 23:54:00,
2013-01-23 15:59:00,68.8,32.5,29.71,SE,137,4.0,11.0,26,0.00,,,0.00,VWS V13.01,2013-01-23 23:59:00,
2013-01-23 16:04:00,68.6,32.4,29.70,South,180,0.0,6.0,26,0.00,,,0.00,VWS V13.01,2013-01-24 00:04:00,
2013-01-23 16:09:00,68.2,33.0,29.71,SE,134,2.0,7.0,27,0.00,,,0.00,VWS V13.01,2013-01-24 00:09:00,
2013-01-23 16:14:00,67.9,33.6,29.72,SSE,155,7.0,7.0,28,0.00,,,0.00,VWS V13.01,2013-01-24 00:14:00,
2013-01-23 16:19:00,67.4,33.2,29.72,NW,322,5.0,9.0,28,0.00,,,0.00,VWS V13.01,2013-01-24 00:19:00,
2013-01-23 16:24:00,67.2,33.0,29.72,SSE,163,2.0,9.0,28,0.00,,,0.00,VWS V13.01,2013-01-24 00:24:00,
2013-01-23 16:29:00,66.8,32.7,29.71,SSE,163,0.0,9.0,28,0.00,,,0.00,VWS V13.01,2013-01-24 00:29:00,
2013-01-23 16:34:00,66.6,33.4,29.72,SSE,163,4.0,9.0,29,0.00,,,0.00,VWS V13.01,2013-01-24 00:34:00,
2013-01-23 16:39:00,66.2,33.9,29.72,East,94,0.0,9.0,30,0.00,,,0.00,VWS V13.01,2013-01-24 00:39:00,
2013-01-23 16:44:00,65.9,33.6,29.71,NE,36,2.0,9.0,30,0.00,,,0.00,VWS V13.01,2013-01-24 00:44:00,
2013-01-23 16:49:00,65.8,32.7,29.71,WNW,283,7.0,9.0,29,0.00,,,0.00,VWS V13.01,2013-01-24 00:49:00,
2013-01-23 16:54:00,65.7,33.5,29.72,WNW,282,1.0,9.0,30,0.00,,,0.00,VWS V13.01,2013-01-24 00:54:00,
2013-01-23 16:59:00,65.3,33.9,29.73,West,281,0.0,9.0,31,0.00,,,0.00,VWS V13.01,2013-01-24 00:59:00,
2013-01-23 17:04:00,65.0,32.8,29.72,NW,308,6.0,7.0,30,0.00,,,0.00,VWS V13.01,2013-01-24 01:04:00,
2013-01-23 17:09:00,64.9,32.8,29.72,WNW,295,1.0,7.0,30,0.00,,,0.00,VWS V13.01,2013-01-24 01:09:00,
2013-01-23 17:15:00,64.8,32.7,29.72,WNW,296,0.0,7.0,30,0.00,,,0.00,VWS V13.01,2013-01-24 01:15:00,
2013-01-23 17:20:00,64.1,33.7,29.75,SE,128,4.0,12.0,32,0.00,,,0.00,VWS V13.01,2013-01-24 01:20:00,
2013-01-23 17:25:00,63.7,33.3,29.74,ENE,67,2.0,12.0,32,0.00,,,0.00,VWS V13.01,2013-01-24 01:25:00,
2013-01-23 17:30:00,63.5,32.3,29.73,NNW,345,1.0,12.0,31,0.00,,,0.00,VWS V13.01,2013-01-24 01:30:00,
2013-01-23 17:35:00,63.3,33.0,29.72,NW,317,9.0,12.0,32,0.00,,,0.00,VWS V13.01,2013-01-24 01:35:00,
2013-01-23 17:40:00,63.4,33.0,29.72,SW,229,6.0,12.0,32,0.00,,,0.00,VWS V13.01,2013-01-24 01:40:00,
2013-01-23 17:45:00,63.2,32.9,29.70,NW,313,11.0,18.0,32,0.00,,,0.00,VWS V13.01,2013-01-24 01:45:00,
2013-01-23 17:50:00,64.2,33.0,29.70,NW,319,6.0,18.0,31,0.00,,,0.00,VWS V13.01,2013-01-24 01:50:00,
2013-01-23 17:55:00,64.5,32.4,29.71,NW,316,2.0,18.0,30,0.00,,,0.00,VWS V13.01,2013-01-24 01:55:00,
2013-01-23 18:00:00,64.4,33.9,29.75,SE,129,13.0,19.0,32,0.00,,,0.00,VWS V13.01,2013-01-24 02:00:00,
2013-01-23 18:05:00,62.6,34.6,29.76,SE,140,5.0,10.0,35,0.00,,,0.00,VWS V13.01,2013-01-24 02:05:00,
2013-01-23 18:10:00,62.0,34.1,29.76,ENE,78,8.0,10.0,35,0.00,,,0.00,VWS V13.01,2013-01-24 02:10:00,
2013-01-23 18:15:00,62.3,32.9,29.75,North,360,5.0,10.0,33,0.00,,,0.00,VWS V13.01,2013-01-24 02:15:00,
2013-01-23 18:20:00,62.7,32.4,29.75,NNE,17,6.0,10.0,32,0.00,,,0.00,VWS V13.01,2013-01-24 02:20:00,
2013-01-23 18:25:00,63.0,31.9,29.76,ESE,104,0.0,10.0,31,0.00,,,0.00,VWS V13.01,2013-01-24 02:25:00,
2013-01-23 18:30:00,63.0,32.7,29.76,ESE,104,0.0,10.0,32,0.00,,,0.00,VWS V13.01,2013-01-24 02:30:00,
2013-01-23 18:35:00,62.6,33.1,29.75,NW,317,3.0,10.0,33,0.00,,,0.00,VWS V13.01,2013-01-24 02:35:00,
2013-01-23 18:40:00,62.1,33.4,29.76,SSW,202,4.0,10.0,34,0.00,,,0.00,VWS V13.01,2013-01-24 02:40:00,
2013-01-23 18:45:00,61.6,33.0,29.76,South,188,4.0,10.0,34,0.00,,,0.00,VWS V13.01,2013-01-24 02:45:00,
2013-01-23 18:50:00,61.2,32.6,29.75,South,186,2.0,10.0,34,0.00,,,0.00,VWS V13.01,2013-01-24 02:50:00,
2013-01-23 18:55:00,61.1,32.5,29.73,NNW,331,7.0,10.0,34,0.00,,,0.00,VWS V13.01,2013-01-24 02:55:00,
2013-01-23 19:00:00,61.3,32.0,29.73,NNW,336,2.0,10.0,33,0.00,,,0.00,VWS V13.01,2013-01-24 03:00:00,
2013-01-23 19:05:00,61.5,32.2,29.72,NNW,336,2.0,3.0,33,0.00,,,0.00,VWS V13.01,2013-01-24 03:05:00,
2013-01-23 19:10:00,61.5,32.9,29.72,NNW,337,5.0,5.0,34,0.00,,,0.00,VWS V13.01,2013-01-24 03:10:00,
2013-01-23 19:15:00,61.3,33.4,29.72,WNW,294,0.0,6.0,35,0.00,,,0.00,VWS V13.01,2013-01-24 03:15:00,
2013-01-23 19:20:00,60.6,34.2,29.73,ESE,110,6.0,8.0,37,0.00,,,0.00,VWS V13.01,2013-01-24 03:20:00,
2013-01-23 19:25:00,59.9,34.9,29.73,SE,127,8.0,11.0,39,0.00,,,0.00,VWS V13.01,2013-01-24 03:25:00,
2013-01-23 19:30:00,59.6,35.3,29.73,SE,127,5.0,11.0,40,0.00,,,0.00,VWS V13.01,2013-01-24 03:30:00,
2013-01-23 19:35:00,59.4,35.1,29.72,SE,127,5.0,11.0,40,0.00,,,0.00,VWS V13.01,2013-01-24 03:35:00,
2013-01-23 19:40:00,59.0,35.3,29.72,East,85,0.0,11.0,41,0.00,,,0.00,VWS V13.01,2013-01-24 03:40:00,
2013-01-23 19:45:00,59.0,36.0,29.75,East,90,6.0,11.0,42,0.00,,,0.00,VWS V13.01,2013-01-24 03:45:00,
2013-01-23 19:50:00,59.0,34.7,29.73,ESE,102,2.0,11.0,40,0.00,,,0.00,VWS V13.01,2013-01-24 03:50:00,
2013-01-23 19:55:00,59.1,35.4,29.74,ESE,102,1.0,11.0,41,0.00,,,0.00,VWS V13.01,2013-01-24 03:55:00,
2013-01-23 20:00:00,59.0,36.0,29.75,ESE,102,0.0,11.0,42,0.00,,,0.00,VWS V13.01,2013-01-24 04:00:00,
2013-01-23 20:05:00,59.0,36.0,29.74,ENE,77,4.0,5.0,42,0.00,,,0.00,VWS V13.01,2013-01-24 04:05:00,
2013-01-23 20:10:00,59.0,36.0,29.74,NE,49,0.0,5.0,42,0.00,,,0.00,VWS V13.01,2013-01-24 04:10:00,
2013-01-23 20:15:00,59.0,36.6,29.75,NNE,24,1.0,5.0,43,0.00,,,0.00,VWS V13.01,2013-01-24 04:15:00,
2013-01-23 20:20:00,58.6,36.8,29.76,ENE,78,4.0,6.0,44,0.00,,,0.00,VWS V13.01,2013-01-24 04:20:00,
2013-01-23 20:25:00,58.2,37.5,29.76,East,96,6.0,6.0,46,0.00,,,0.00,VWS V13.01,2013-01-24 04:25:00,
2013-01-23 20:30:00,58.1,37.5,29.76,East,96,2.0,6.0,46,0.00,,,0.00,VWS V13.01,2013-01-24 04:30:00,
2013-01-23 20:35:00,58.2,37.0,29.76,NNW,348,5.0,6.0,45,0.00,,,0.00,VWS V13.01,2013-01-24 04:35:00,
2013-01-23 20:40:00,58.6,36.8,29.75,NNW,348,1.0,6.0,44,0.00,,,0.00,VWS V13.01,2013-01-24 04:40:00,
2013-01-23 20:45:00,58.6,39.0,29.75,West,280,4.0,9.0,48,0.00,,,0.00,VWS V13.01,2013-01-24 04:45:00,
2013-01-23 20:50:00,57.8,38.3,29.75,NW,309,5.0,10.0,48,0.00,,,0.00,VWS V13.01,2013-01-24 04:50:00,
2013-01-23 20:55:00,57.7,37.1,29.76,NW,325,8.0,10.0,46,0.00,,,0.00,VWS V13.01,2013-01-24 04:55:00,
2013-01-23 21:01:00,58.1,36.9,29.75,NW,326,5.0,10.0,45,0.00,,,0.00,VWS V13.01,2013-01-24 05:01:00,
2013-01-23 21:03:00,58.1,36.3,29.76,NW,326,0.0,10.0,44,0.00,,,0.00,VWS V13.01,2013-01-24 05:03:00,
2013-01-23 21:08:00,57.6,39.6,29.77,SE,129,6.0,7.0,51,0.00,,,0.00,VWS V13.01,2013-01-24 05:08:00,
2013-01-23 21:13:00,56.7,38.8,29.77,East,94,4.0,10.0,51,0.00,,,0.00,VWS V13.01,2013-01-24 05:13:00,
2013-01-23 21:18:00,56.7,38.8,29.77,NNE,28,7.0,10.0,51,0.00,,,0.00,VWS V13.01,2013-01-24 05:18:00,
2013-01-23 21:23:00,56.9,38.5,29.77,North,9,5.0,10.0,50,0.00,,,0.00,VWS V13.01,2013-01-24 05:23:00,
2013-01-23 21:28:00,57.1,39.2,29.76,NE,51,0.0,10.0,51,0.00,,,0.00,VWS V13.01,2013-01-24 05:28:00,
2013-01-23 21:33:00,57.1,40.2,29.76,NE,51,0.0,10.0,53,0.00,,,0.00,VWS V13.01,2013-01-24 05:33:00,
2013-01-23 21:38:00,56.8,41.8,29.76,NE,51,0.0,10.0,57,0.00,,,0.00,VWS V13.01,2013-01-24 05:38:00,
2013-01-23 21:43:00,56.4,42.3,29.76,NE,51,0.0,10.0,59,0.00,,,0.00,VWS V13.01,2013-01-24 05:43:00,
2013-01-23 21:48:00,56.1,43.3,29.76,NE,51,0.0,10.0,62,0.00,,,0.00,VWS V13.01,2013-01-24 05:48:00,
2013-01-23 21:53:00,55.8,43.0,29.77,SSE,153,0.0,10.0,62,0.00,,,0.00,VWS V13.01,2013-01-24 05:53:00,
2013-01-23 21:58:00,56.0,40.5,29.77,SE,145,6.0,10.0,56,0.00,,,0.00,VWS V13.01,2013-01-24 05:58:00,
2013-01-23 22:03:00,56.0,42.8,29.77,SE,130,6.0,7.0,61,0.00,,,0.00,VWS V13.01,2013-01-24 06:03:00,
2013-01-23 22:09:00,55.1,43.2,29.78,SSE,150,4.0,13.0,64,0.00,,,0.00,VWS V13.01,2013-01-24 06:09:00,
2013-01-23 22:14:00,54.7,43.6,29.78,SSE,150,0.0,13.0,66,0.00,,,0.00,VWS V13.01,2013-01-24 06:14:00,
2013-01-23 22:19:00,54.2,43.9,29.78,SSE,150,1.0,13.0,68,0.00,,,0.00,VWS V13.01,2013-01-24 06:19:00,
2013-01-23 22:24:00,53.9,44.3,29.78,NNW,336,6.0,13.0,70,0.00,,,0.00,VWS V13.01,2013-01-24 06:24:00,
2013-01-23 22:29:00,53.6,44.1,29.79,NNW,336,1.0,13.0,70,0.01,,,0.01,VWS V13.01,2013-01-24 06:29:00,
2013-01-23 22:34:00,53.4,45.0,29.79,NNW,336,0.0,13.0,73,0.01,,,0.01,VWS V13.01,2013-01-24 06:34:00,
2013-01-23 22:39:00,53.1,45.0,29.79,NNW,336,1.0,13.0,74,0.01,,,0.01,VWS V13.01,2013-01-24 06:39:00,
2013-01-23 22:44:00,52.9,45.5,29.80,NNW,336,0.0,13.0,76,0.01,,,0.01,VWS V13.01,2013-01-24 06:44:00,
2013-01-23 22:49:00,52.7,46.0,29.80,NNW,336,0.0,13.0,78,0.01,,,0.01,VWS V13.01,2013-01-24 06:49:00,
2013-01-23 22:54:00,52.7,46.0,29.80,NNW,336,0.0,13.0,78,0.01,,,0.01,VWS V13.01,2013-01-24 06:54:00,
2013-01-23 22:59:00,53.4,44.6,29.80,East,94,2.0,13.0,72,0.02,,,0.02,VWS V13.01,2013-01-24 06:59:00,
2013-01-23 23:04:00,54.3,44.4,29.80,ESE,114,0.0,7.0,69,0.02,,,0.02,VWS V13.01,2013-01-24 07:04:00,
2013-01-23 23:09:00,54.9,44.9,29.80,ESE,105,8.0,11.0,69,0.02,,,0.02,VWS V13.01,2013-01-24 07:09:00,
2013-01-23 23:14:00,55.1,44.3,29.80,SE,132,6.0,14.0,67,0.03,,,0.03,VWS V13.01,2013-01-24 07:14:00,
2013-01-23 23:19:00,54.9,44.9,29.79,SSE,150,7.0,14.0,69,0.03,,,0.03,VWS V13.01,2013-01-24 07:19:00,
2013-01-23 23:24:00,54.7,45.1,29.79,ESE,122,12.0,16.0,70,0.04,,,0.04,VWS V13.01,2013-01-24 07:24:00,
2013-01-23 23:29:00,54.8,45.6,29.78,SE,135,9.0,21.0,71,0.04,,,0.04,VWS V13.01,2013-01-24 07:29:00,
2013-01-23 23:34:00,54.2,45.8,29.78,ESE,118,9.0,21.0,73,0.05,,,0.05,VWS V13.01,2013-01-24 07:34:00,
2013-01-23 23:39:00,54.2,46.1,29.78,SSE,153,11.0,23.0,74,0.06,,,0.06,VWS V13.01,2013-01-24 07:39:00,
2013-01-23 23:44:00,54.2,46.1,29.78,SSE,159,13.0,23.0,74,0.07,,,0.07,VWS V13.01,2013-01-24 07:44:00,
2013-01-23 23:49:00,54.3,46.2,29.78,ESE,121,12.0,23.0,74,0.07,,,0.07,VWS V13.01,2013-01-24 07:49:00,
2013-01-23 23:54:00,54.4,46.7,29.79,SE,128,10.0,23.0,75,0.07,,,0.07,VWS V13.01,2013-01-24 07:54:00,
2013-01-23 23:59:00,54.2,46.8,29.78,SSE,159,11.0,23.0,76,0.08,,,0.08,VWS V13.01,2013-01-24 07:59:00,